Etusivu
METAR-TAF:

METAR-TAF

Lentoasemat :

Tukholma-Arlanda, Ruotsi

Arlandan kansainvälinen lentoasema

Leveyspiiri: 59-39N, Pituuspiiri: 017-57E, korkeus merenpinnasta: 38 m

Tämänhetkinen sää

Tämä raportti tehtiin 28 minuuttia sitten, kello 22.20 UTC
Tuuli 14 kn lounaasta
Lämpötila 6°C
Kosteus 75%
Ilmanpaine 1003 hPa
Näkyvyys 10 km tai enemmän
Muutamia pilviä 3700 ft:n korkeudessa

METAR: ESSA 172220Z 23014KT 9999 FEW037 06/02 Q1003 R88/19//95 NOSIG

Aika: 23:48 (22:48 UTC)

Sääennuste

Tämä raportti tehtiin 5 tuntia ja 18 minuuttia sitten, kello 17.30 UTC
Ennuste voimassa 17. päivästä klo 18 UTC - 18. päivään klo 18 UTC
Tuuli 12 kn lännestä/lounaasta
Näkyvyys 10 km tai enemmän
ei pilviä alle 1500 m:ssä eikä cumulonimbus-pilviä
Ajoittain
18. päivästä klo 00 UTC - 18. päivään klo 12 UTC
Näkyvyys: 4000 m
Hajonneita pilviä 800 ft:n korkeudessa
heikkoa sadetta, tihkusadetta

TAF: ESSA 171730Z 1718/1818 24012KT CAVOK TEMPO 1800/1812 4000 -RADZ BKN008

Säähavainnot ja -ennusteet yli 4000 lentoasemalta (METAR- ja TAF-raportit).

Käytössä olevat sääasemat on merkitty karttaan keltaisilla ja punaisilla pisteillä.

Aseta hiiri pisteen päälle nähdäksesi sääaseman nimen.

Klikkaa sitten nähdäksesi säähavainnot ja -ennusteet.

Kartan vaihtaminen: klikkaa mustalla rastilla varustettuja vihreitä pisteitä, niin voit zoomata sisään; viivalla varustettua vihreää pistettä, niin voit zoomata ulos tai vihreitä nuolia, niin pääset viereisille kartoille.


METAR-TAF: